sensor_id;sensor_type;location;lat;lon;timestamp;P1;durP1;ratioP1;P2;durP2;ratioP2
52368;SDS011;38298;50.346;3.526;2023-12-22T00:01:42;10.40;;;1.90;;
52368;SDS011;38298;50.346;3.526;2023-12-22T00:04:09;15.60;;;1.98;;
52368;SDS011;38298;50.346;3.526;2023-12-22T00:06:34;10.98;;;1.88;;
52368;SDS011;38298;50.346;3.526;2023-12-22T00:09:00;18.48;;;2.90;;
52368;SDS011;38298;50.346;3.526;2023-12-22T00:11:26;12.90;;;1.95;;
52368;SDS011;38298;50.346;3.526;2023-12-22T00:13:52;22.13;;;2.35;;
52368;SDS011;38298;50.346;3.526;2023-12-22T00:16:18;13.43;;;1.58;;
52368;SDS011;38298;50.346;3.526;2023-12-22T00:18:44;22.70;;;2.22;;
52368;SDS011;38298;50.346;3.526;2023-12-22T00:21:11;18.23;;;2.05;;
52368;SDS011;38298;50.346;3.526;2023-12-22T00:23:37;20.77;;;2.95;;
52368;SDS011;38298;50.346;3.526;2023-12-22T00:26:03;15.55;;;2.35;;
52368;SDS011;38298;50.346;3.526;2023-12-22T00:28:29;21.35;;;2.92;;
52368;SDS011;38298;50.346;3.526;2023-12-22T00:30:56;19.27;;;2.20;;
52368;SDS011;38298;50.346;3.526;2023-12-22T00:33:23;26.02;;;2.72;;
52368;SDS011;38298;50.346;3.526;2023-12-22T00:35:49;17.50;;;2.45;;
52368;SDS011;38298;50.346;3.526;2023-12-22T00:38:15;11.15;;;2.00;;
52368;SDS011;38298;50.346;3.526;2023-12-22T00:40:41;22.98;;;2.53;;
52368;SDS011;38298;50.346;3.526;2023-12-22T00:43:07;16.38;;;3.15;;
52368;SDS011;38298;50.346;3.526;2023-12-22T00:45:33;20.05;;;2.58;;
52368;SDS011;38298;50.346;3.526;2023-12-22T00:47:59;15.48;;;2.20;;
52368;SDS011;38298;50.346;3.526;2023-12-22T00:50:25;17.63;;;2.85;;
52368;SDS011;38298;50.346;3.526;2023-12-22T00:52:51;13.93;;;2.58;;
52368;SDS011;38298;50.346;3.526;2023-12-22T00:55:17;17.42;;;2.42;;
52368;SDS011;38298;50.346;3.526;2023-12-22T00:57:43;13.05;;;1.88;;
52368;SDS011;38298;50.346;3.526;2023-12-22T01:00:09;19.05;;;2.08;;
52368;SDS011;38298;50.346;3.526;2023-12-22T01:02:37;7.85;;;1.58;;
52368;SDS011;38298;50.346;3.526;2023-12-22T01:05:03;13.63;;;2.47;;
52368;SDS011;38298;50.346;3.526;2023-12-22T01:07:29;19.17;;;2.92;;
52368;SDS011;38298;50.346;3.526;2023-12-22T01:09:55;9.45;;;1.98;;
52368;SDS011;38298;50.346;3.526;2023-12-22T01:12:26;19.92;;;2.92;;
52368;SDS011;38298;50.346;3.526;2023-12-22T01:14:53;14.95;;;2.50;;
52368;SDS011;38298;50.346;3.526;2023-12-22T01:17:19;13.90;;;2.08;;
52368;SDS011;38298;50.346;3.526;2023-12-22T01:19:45;16.92;;;2.13;;
52368;SDS011;38298;50.346;3.526;2023-12-22T01:22:11;13.57;;;2.25;;
52368;SDS011;38298;50.346;3.526;2023-12-22T01:24:37;10.57;;;1.70;;
52368;SDS011;38298;50.346;3.526;2023-12-22T01:27:06;16.17;;;1.95;;
52368;SDS011;38298;50.346;3.526;2023-12-22T01:29:32;17.75;;;2.45;;
52368;SDS011;38298;50.346;3.526;2023-12-22T01:31:58;12.52;;;1.83;;
52368;SDS011;38298;50.346;3.526;2023-12-22T01:34:24;14.85;;;2.17;;
52368;SDS011;38298;50.346;3.526;2023-12-22T01:36:50;16.45;;;2.63;;
52368;SDS011;38298;50.346;3.526;2023-12-22T01:39:16;9.95;;;1.90;;
52368;SDS011;38298;50.346;3.526;2023-12-22T01:41:42;20.27;;;2.33;;
52368;SDS011;38298;50.346;3.526;2023-12-22T01:44:08;17.35;;;2.42;;
52368;SDS011;38298;50.346;3.526;2023-12-22T01:46:34;20.83;;;2.35;;
52368;SDS011;38298;50.346;3.526;2023-12-22T01:49:00;17.30;;;1.70;;
52368;SDS011;38298;50.346;3.526;2023-12-22T01:51:28;19.73;;;2.78;;
52368;SDS011;38298;50.346;3.526;2023-12-22T01:53:54;11.30;;;2.15;;
52368;SDS011;38298;50.346;3.526;2023-12-22T01:56:20;10.90;;;1.70;;
52368;SDS011;38298;50.346;3.526;2023-12-22T01:58:46;13.93;;;2.10;;
52368;SDS011;38298;50.346;3.526;2023-12-22T02:01:12;22.92;;;2.63;;
52368;SDS011;38298;50.346;3.526;2023-12-22T02:03:39;15.57;;;2.10;;
52368;SDS011;38298;50.346;3.526;2023-12-22T02:06:05;12.02;;;1.50;;
52368;SDS011;38298;50.346;3.526;2023-12-22T02:08:31;16.17;;;1.95;;
52368;SDS011;38298;50.346;3.526;2023-12-22T02:10:58;9.82;;;2.20;;
52368;SDS011;38298;50.346;3.526;2023-12-22T02:13:24;18.02;;;2.50;;
52368;SDS011;38298;50.346;3.526;2023-12-22T02:15:53;20.08;;;2.28;;
52368;SDS011;38298;50.346;3.526;2023-12-22T02:18:22;15.40;;;1.92;;
52368;SDS011;38298;50.346;3.526;2023-12-22T02:20:49;14.80;;;2.35;;
52368;SDS011;38298;50.346;3.526;2023-12-22T02:23:15;16.92;;;2.40;;
52368;SDS011;38298;50.346;3.526;2023-12-22T02:25:41;14.30;;;1.85;;
52368;SDS011;38298;50.346;3.526;2023-12-22T02:28:08;14.43;;;1.98;;
52368;SDS011;38298;50.346;3.526;2023-12-22T02:33:19;19.77;;;2.35;;
52368;SDS011;38298;50.346;3.526;2023-12-22T02:35:47;17.20;;;2.13;;
52368;SDS011;38298;50.346;3.526;2023-12-22T02:38:14;18.38;;;2.65;;
52368;SDS011;38298;50.346;3.526;2023-12-22T02:40:41;18.13;;;2.22;;
52368;SDS011;38298;50.346;3.526;2023-12-22T02:43:08;15.40;;;2.83;;
52368;SDS011;38298;50.346;3.526;2023-12-22T02:45:34;18.13;;;2.28;;
52368;SDS011;38298;50.346;3.526;2023-12-22T02:48:00;15.98;;;2.05;;
52368;SDS011;38298;50.346;3.526;2023-12-22T02:50:26;15.15;;;2.38;;
52368;SDS011;38298;50.346;3.526;2023-12-22T02:52:52;24.00;;;2.75;;
52368;SDS011;38298;50.346;3.526;2023-12-22T02:55:18;15.98;;;2.60;;
52368;SDS011;38298;50.346;3.526;2023-12-22T02:57:44;25.17;;;2.22;;
52368;SDS011;38298;50.346;3.526;2023-12-22T03:00:10;15.20;;;2.10;;
52368;SDS011;38298;50.346;3.526;2023-12-22T03:02:36;20.77;;;2.65;;
52368;SDS011;38298;50.346;3.526;2023-12-22T03:05:02;21.98;;;2.67;;
52368;SDS011;38298;50.346;3.526;2023-12-22T03:07:28;23.00;;;2.70;;
52368;SDS011;38298;50.346;3.526;2023-12-22T03:09:54;23.27;;;2.75;;
52368;SDS011;38298;50.346;3.526;2023-12-22T03:12:20;18.20;;;2.22;;
52368;SDS011;38298;50.346;3.526;2023-12-22T03:14:46;18.67;;;2.60;;
52368;SDS011;38298;50.346;3.526;2023-12-22T03:17:12;19.67;;;2.92;;
52368;SDS011;38298;50.346;3.526;2023-12-22T03:19:39;15.63;;;1.98;;
52368;SDS011;38298;50.346;3.526;2023-12-22T03:22:05;22.65;;;2.80;;
52368;SDS011;38298;50.346;3.526;2023-12-22T03:24:31;24.13;;;3.15;;
52368;SDS011;38298;50.346;3.526;2023-12-22T03:26:58;20.88;;;2.60;;
52368;SDS011;38298;50.346;3.526;2023-12-22T03:29:24;22.60;;;2.72;;
52368;SDS011;38298;50.346;3.526;2023-12-22T03:31:50;23.13;;;2.47;;
52368;SDS011;38298;50.346;3.526;2023-12-22T03:34:16;12.02;;;2.00;;
52368;SDS011;38298;50.346;3.526;2023-12-22T03:36:42;23.90;;;2.78;;
52368;SDS011;38298;50.346;3.526;2023-12-22T03:39:13;28.55;;;2.67;;
52368;SDS011;38298;50.346;3.526;2023-12-22T03:41:39;17.52;;;2.22;;
52368;SDS011;38298;50.346;3.526;2023-12-22T03:44:05;17.15;;;2.42;;
52368;SDS011;38298;50.346;3.526;2023-12-22T03:46:31;21.42;;;2.53;;
52368;SDS011;38298;50.346;3.526;2023-12-22T03:48:57;21.75;;;2.58;;
52368;SDS011;38298;50.346;3.526;2023-12-22T03:51:24;15.68;;;2.20;;
52368;SDS011;38298;50.346;3.526;2023-12-22T03:53:50;18.20;;;2.20;;
52368;SDS011;38298;50.346;3.526;2023-12-22T03:56:15;19.10;;;2.25;;
52368;SDS011;38298;50.346;3.526;2023-12-22T03:58:42;26.02;;;3.25;;
52368;SDS011;38298;50.346;3.526;2023-12-22T04:01:08;20.52;;;2.65;;
52368;SDS011;38298;50.346;3.526;2023-12-22T04:03:34;18.73;;;2.63;;
52368;SDS011;38298;50.346;3.526;2023-12-22T04:06:03;18.60;;;2.30;;
52368;SDS011;38298;50.346;3.526;2023-12-22T04:08:29;27.50;;;3.37;;
52368;SDS011;38298;50.346;3.526;2023-12-22T04:10:55;19.67;;;2.75;;
52368;SDS011;38298;50.346;3.526;2023-12-22T04:13:21;24.48;;;3.60;;
52368;SDS011;38298;50.346;3.526;2023-12-22T04:15:47;19.83;;;3.03;;
52368;SDS011;38298;50.346;3.526;2023-12-22T04:18:13;17.33;;;2.75;;
52368;SDS011;38298;50.346;3.526;2023-12-22T04:20:39;18.60;;;2.33;;
52368;SDS011;38298;50.346;3.526;2023-12-22T04:23:05;18.38;;;2.25;;
52368;SDS011;38298;50.346;3.526;2023-12-22T04:25:31;21.55;;;2.70;;
52368;SDS011;38298;50.346;3.526;2023-12-22T04:27:57;25.70;;;3.63;;
52368;SDS011;38298;50.346;3.526;2023-12-22T04:30:23;15.65;;;2.17;;
52368;SDS011;38298;50.346;3.526;2023-12-22T04:32:51;19.23;;;2.10;;
52368;SDS011;38298;50.346;3.526;2023-12-22T04:35:17;14.93;;;2.38;;
52368;SDS011;38298;50.346;3.526;2023-12-22T04:37:44;14.40;;;2.85;;
52368;SDS011;38298;50.346;3.526;2023-12-22T04:40:10;14.73;;;2.45;;
52368;SDS011;38298;50.346;3.526;2023-12-22T04:42:36;17.17;;;1.98;;
52368;SDS011;38298;50.346;3.526;2023-12-22T04:45:02;16.98;;;2.05;;
52368;SDS011;38298;50.346;3.526;2023-12-22T04:47:28;17.90;;;2.53;;
52368;SDS011;38298;50.346;3.526;2023-12-22T04:49:54;13.60;;;1.98;;
52368;SDS011;38298;50.346;3.526;2023-12-22T04:52:20;15.27;;;2.17;;
52368;SDS011;38298;50.346;3.526;2023-12-22T04:54:46;16.92;;;2.28;;
52368;SDS011;38298;50.346;3.526;2023-12-22T04:57:12;11.48;;;2.20;;
52368;SDS011;38298;50.346;3.526;2023-12-22T04:59:38;17.42;;;2.15;;
52368;SDS011;38298;50.346;3.526;2023-12-22T05:02:04;20.52;;;2.17;;
52368;SDS011;38298;50.346;3.526;2023-12-22T05:04:31;20.15;;;2.80;;
52368;SDS011;38298;50.346;3.526;2023-12-22T05:06:57;9.13;;;2.20;;
52368;SDS011;38298;50.346;3.526;2023-12-22T05:09:23;13.95;;;2.47;;
52368;SDS011;38298;50.346;3.526;2023-12-22T05:11:50;12.65;;;2.33;;
52368;SDS011;38298;50.346;3.526;2023-12-22T05:14:16;16.83;;;2.03;;
52368;SDS011;38298;50.346;3.526;2023-12-22T05:16:42;14.02;;;1.80;;
52368;SDS011;38298;50.346;3.526;2023-12-22T05:19:08;11.90;;;1.48;;
52368;SDS011;38298;50.346;3.526;2023-12-22T05:21:34;13.23;;;2.55;;
52368;SDS011;38298;50.346;3.526;2023-12-22T05:24:00;9.88;;;1.75;;
52368;SDS011;38298;50.346;3.526;2023-12-22T05:26:27;14.60;;;2.10;;
52368;SDS011;38298;50.346;3.526;2023-12-22T05:28:55;15.23;;;2.15;;
52368;SDS011;38298;50.346;3.526;2023-12-22T05:31:22;14.02;;;2.30;;
52368;SDS011;38298;50.346;3.526;2023-12-22T05:33:48;12.00;;;2.28;;
52368;SDS011;38298;50.346;3.526;2023-12-22T05:36:14;10.60;;;1.90;;
52368;SDS011;38298;50.346;3.526;2023-12-22T05:38:40;14.82;;;1.67;;
52368;SDS011;38298;50.346;3.526;2023-12-22T05:41:06;10.32;;;1.67;;
52368;SDS011;38298;50.346;3.526;2023-12-22T05:43:32;14.18;;;2.70;;
52368;SDS011;38298;50.346;3.526;2023-12-22T05:45:59;11.32;;;1.40;;
52368;SDS011;38298;50.346;3.526;2023-12-22T05:48:25;11.88;;;1.48;;
52368;SDS011;38298;50.346;3.526;2023-12-22T05:50:52;10.05;;;1.70;;
52368;SDS011;38298;50.346;3.526;2023-12-22T05:53:18;6.93;;;1.17;;
52368;SDS011;38298;50.346;3.526;2023-12-22T05:55:44;19.48;;;2.15;;
52368;SDS011;38298;50.346;3.526;2023-12-22T05:58:10;13.30;;;1.58;;
52368;SDS011;38298;50.346;3.526;2023-12-22T06:00:36;7.70;;;1.60;;
52368;SDS011;38298;50.346;3.526;2023-12-22T06:03:02;6.57;;;1.27;;
52368;SDS011;38298;50.346;3.526;2023-12-22T06:05:29;8.00;;;1.58;;
52368;SDS011;38298;50.346;3.526;2023-12-22T06:07:55;12.25;;;1.40;;
52368;SDS011;38298;50.346;3.526;2023-12-22T06:10:21;4.60;;;1.00;;
52368;SDS011;38298;50.346;3.526;2023-12-22T06:12:47;9.48;;;1.17;;
52368;SDS011;38298;50.346;3.526;2023-12-22T06:15:13;7.47;;;1.20;;
52368;SDS011;38298;50.346;3.526;2023-12-22T06:17:39;8.75;;;1.10;;
52368;SDS011;38298;50.346;3.526;2023-12-22T06:20:05;7.40;;;0.88;;
52368;SDS011;38298;50.346;3.526;2023-12-22T06:22:31;10.48;;;0.82;;
52368;SDS011;38298;50.346;3.526;2023-12-22T06:24:57;7.10;;;1.00;;
52368;SDS011;38298;50.346;3.526;2023-12-22T06:27:24;10.60;;;1.20;;
52368;SDS011;38298;50.346;3.526;2023-12-22T06:29:50;4.80;;;1.02;;
52368;SDS011;38298;50.346;3.526;2023-12-22T06:32:16;4.05;;;0.75;;
52368;SDS011;38298;50.346;3.526;2023-12-22T06:34:42;5.35;;;0.73;;
52368;SDS011;38298;50.346;3.526;2023-12-22T06:37:08;2.38;;;0.73;;
52368;SDS011;38298;50.346;3.526;2023-12-22T06:39:36;2.90;;;0.70;;
52368;SDS011;38298;50.346;3.526;2023-12-22T06:42:02;12.68;;;1.02;;
52368;SDS011;38298;50.346;3.526;2023-12-22T06:44:30;3.25;;;0.70;;
52368;SDS011;38298;50.346;3.526;2023-12-22T06:46:56;8.10;;;1.10;;
52368;SDS011;38298;50.346;3.526;2023-12-22T06:49:22;4.57;;;0.70;;
52368;SDS011;38298;50.346;3.526;2023-12-22T06:51:48;6.10;;;0.95;;
52368;SDS011;38298;50.346;3.526;2023-12-22T06:54:14;3.22;;;0.55;;
52368;SDS011;38298;50.346;3.526;2023-12-22T06:56:40;3.85;;;0.77;;
52368;SDS011;38298;50.346;3.526;2023-12-22T06:59:06;1.45;;;0.50;;
52368;SDS011;38298;50.346;3.526;2023-12-22T07:01:33;6.53;;;0.88;;
52368;SDS011;38298;50.346;3.526;2023-12-22T07:04:00;6.50;;;0.70;;
52368;SDS011;38298;50.346;3.526;2023-12-22T07:06:27;4.88;;;0.60;;
52368;SDS011;38298;50.346;3.526;2023-12-22T07:11:41;4.50;;;1.17;;
52368;SDS011;38298;50.346;3.526;2023-12-22T07:14:07;4.05;;;0.73;;
52368;SDS011;38298;50.346;3.526;2023-12-22T07:16:33;5.05;;;1.27;;
52368;SDS011;38298;50.346;3.526;2023-12-22T07:18:59;7.30;;;1.52;;
52368;SDS011;38298;50.346;3.526;2023-12-22T07:21:26;11.48;;;1.42;;
52368;SDS011;38298;50.346;3.526;2023-12-22T07:23:52;9.63;;;1.33;;
52368;SDS011;38298;50.346;3.526;2023-12-22T07:26:18;10.10;;;1.48;;
52368;SDS011;38298;50.346;3.526;2023-12-22T07:28:46;8.07;;;1.40;;
52368;SDS011;38298;50.346;3.526;2023-12-22T07:31:12;7.50;;;1.60;;
52368;SDS011;38298;50.346;3.526;2023-12-22T07:33:39;10.80;;;2.00;;
52368;SDS011;38298;50.346;3.526;2023-12-22T07:36:08;13.18;;;2.20;;
52368;SDS011;38298;50.346;3.526;2023-12-22T07:38:35;13.27;;;1.45;;
52368;SDS011;38298;50.346;3.526;2023-12-22T07:41:01;10.57;;;1.70;;
52368;SDS011;38298;50.346;3.526;2023-12-22T07:43:27;9.32;;;2.28;;
52368;SDS011;38298;50.346;3.526;2023-12-22T07:45:54;9.10;;;2.03;;
52368;SDS011;38298;50.346;3.526;2023-12-22T07:48:20;9.70;;;1.38;;
52368;SDS011;38298;50.346;3.526;2023-12-22T07:50:46;11.75;;;1.85;;
52368;SDS011;38298;50.346;3.526;2023-12-22T07:53:12;14.05;;;1.98;;
52368;SDS011;38298;50.346;3.526;2023-12-22T07:55:39;8.07;;;1.33;;
52368;SDS011;38298;50.346;3.526;2023-12-22T07:58:05;5.57;;;1.23;;
52368;SDS011;38298;50.346;3.526;2023-12-22T08:00:31;11.70;;;1.92;;
52368;SDS011;38298;50.346;3.526;2023-12-22T08:02:57;5.35;;;1.60;;
52368;SDS011;38298;50.346;3.526;2023-12-22T08:05:23;10.23;;;1.65;;
52368;SDS011;38298;50.346;3.526;2023-12-22T08:07:49;11.32;;;1.55;;
52368;SDS011;38298;50.346;3.526;2023-12-22T08:10:15;11.55;;;1.48;;
52368;SDS011;38298;50.346;3.526;2023-12-22T08:12:42;11.57;;;1.40;;
52368;SDS011;38298;50.346;3.526;2023-12-22T08:15:08;6.93;;;1.20;;
52368;SDS011;38298;50.346;3.526;2023-12-22T08:17:37;8.50;;;1.20;;
52368;SDS011;38298;50.346;3.526;2023-12-22T08:20:05;7.07;;;1.20;;
52368;SDS011;38298;50.346;3.526;2023-12-22T08:22:33;14.13;;;1.40;;
52368;SDS011;38298;50.346;3.526;2023-12-22T08:24:59;7.00;;;1.25;;
52368;SDS011;38298;50.346;3.526;2023-12-22T08:27:25;10.02;;;2.33;;
52368;SDS011;38298;50.346;3.526;2023-12-22T08:29:51;10.10;;;1.50;;
52368;SDS011;38298;50.346;3.526;2023-12-22T08:32:17;10.70;;;1.20;;
52368;SDS011;38298;50.346;3.526;2023-12-22T08:34:44;11.15;;;1.17;;
52368;SDS011;38298;50.346;3.526;2023-12-22T08:37:10;8.45;;;1.45;;
52368;SDS011;38298;50.346;3.526;2023-12-22T08:39:36;9.88;;;1.13;;
52368;SDS011;38298;50.346;3.526;2023-12-22T08:42:03;10.10;;;1.38;;
52368;SDS011;38298;50.346;3.526;2023-12-22T08:44:29;14.40;;;1.35;;
52368;SDS011;38298;50.346;3.526;2023-12-22T08:46:55;7.10;;;1.38;;
52368;SDS011;38298;50.346;3.526;2023-12-22T08:49:21;5.65;;;0.88;;
52368;SDS011;38298;50.346;3.526;2023-12-22T08:51:47;6.25;;;0.82;;
52368;SDS011;38298;50.346;3.526;2023-12-22T08:54:13;9.85;;;1.50;;
52368;SDS011;38298;50.346;3.526;2023-12-22T08:56:40;11.75;;;1.40;;
52368;SDS011;38298;50.346;3.526;2023-12-22T08:59:06;6.70;;;1.00;;
52368;SDS011;38298;50.346;3.526;2023-12-22T09:01:34;12.15;;;1.80;;
52368;SDS011;38298;50.346;3.526;2023-12-22T09:04:00;9.60;;;1.20;;
52368;SDS011;38298;50.346;3.526;2023-12-22T09:06:26;9.18;;;1.10;;
52368;SDS011;38298;50.346;3.526;2023-12-22T09:08:52;12.00;;;1.00;;
52368;SDS011;38298;50.346;3.526;2023-12-22T09:11:19;7.35;;;1.80;;
52368;SDS011;38298;50.346;3.526;2023-12-22T09:13:46;6.97;;;1.48;;
52368;SDS011;38298;50.346;3.526;2023-12-22T09:16:12;5.93;;;0.98;;
52368;SDS011;38298;50.346;3.526;2023-12-22T09:18:40;7.20;;;1.17;;
52368;SDS011;38298;50.346;3.526;2023-12-22T09:21:07;8.70;;;1.23;;
52368;SDS011;38298;50.346;3.526;2023-12-22T09:23:33;4.10;;;1.13;;
52368;SDS011;38298;50.346;3.526;2023-12-22T09:25:59;6.50;;;1.08;;
52368;SDS011;38298;50.346;3.526;2023-12-22T09:28:25;3.92;;;0.68;;
52368;SDS011;38298;50.346;3.526;2023-12-22T09:30:51;6.43;;;0.80;;
52368;SDS011;38298;50.346;3.526;2023-12-22T09:33:17;3.90;;;1.20;;
52368;SDS011;38298;50.346;3.526;2023-12-22T09:35:44;10.60;;;0.90;;
52368;SDS011;38298;50.346;3.526;2023-12-22T09:38:10;2.75;;;0.88;;
52368;SDS011;38298;50.346;3.526;2023-12-22T09:40:37;2.90;;;1.08;;
52368;SDS011;38298;50.346;3.526;2023-12-22T09:43:04;6.80;;;0.93;;
52368;SDS011;38298;50.346;3.526;2023-12-22T09:45:32;4.28;;;0.60;;
52368;SDS011;38298;50.346;3.526;2023-12-22T09:48:00;7.13;;;0.82;;
52368;SDS011;38298;50.346;3.526;2023-12-22T09:50:27;4.35;;;1.00;;
52368;SDS011;38298;50.346;3.526;2023-12-22T09:52:53;7.55;;;1.00;;
52368;SDS011;38298;50.346;3.526;2023-12-22T09:55:21;4.95;;;0.80;;
52368;SDS011;38298;50.346;3.526;2023-12-22T09:57:48;6.97;;;1.13;;
52368;SDS011;38298;50.346;3.526;2023-12-22T10:00:15;5.63;;;0.82;;
52368;SDS011;38298;50.346;3.526;2023-12-22T10:02:41;4.07;;;0.60;;
52368;SDS011;38298;50.346;3.526;2023-12-22T10:05:10;5.97;;;0.85;;
52368;SDS011;38298;50.346;3.526;2023-12-22T10:07:38;4.40;;;0.55;;
52368;SDS011;38298;50.346;3.526;2023-12-22T10:10:04;6.43;;;0.77;;
52368;SDS011;38298;50.346;3.526;2023-12-22T10:12:31;6.82;;;1.02;;
52368;SDS011;38298;50.346;3.526;2023-12-22T10:15:00;11.68;;;1.20;;
52368;SDS011;38298;50.346;3.526;2023-12-22T10:17:26;5.18;;;0.88;;
52368;SDS011;38298;50.346;3.526;2023-12-22T10:19:52;5.82;;;1.00;;
52368;SDS011;38298;50.346;3.526;2023-12-22T10:22:18;6.78;;;1.00;;
52368;SDS011;38298;50.346;3.526;2023-12-22T10:24:46;3.35;;;0.60;;
52368;SDS011;38298;50.346;3.526;2023-12-22T10:27:13;4.88;;;0.88;;
52368;SDS011;38298;50.346;3.526;2023-12-22T10:29:39;6.50;;;0.85;;
52368;SDS011;38298;50.346;3.526;2023-12-22T10:32:05;8.15;;;1.05;;
52368;SDS011;38298;50.346;3.526;2023-12-22T10:34:31;8.30;;;1.60;;
52368;SDS011;38298;50.346;3.526;2023-12-22T10:37:00;6.20;;;0.77;;
52368;SDS011;38298;50.346;3.526;2023-12-22T10:39:27;6.22;;;0.90;;
52368;SDS011;38298;50.346;3.526;2023-12-22T10:41:54;6.50;;;0.95;;
52368;SDS011;38298;50.346;3.526;2023-12-22T10:44:20;6.75;;;0.75;;
52368;SDS011;38298;50.346;3.526;2023-12-22T10:46:46;7.03;;;0.90;;
52368;SDS011;38298;50.346;3.526;2023-12-22T10:49:13;7.03;;;0.90;;
52368;SDS011;38298;50.346;3.526;2023-12-22T10:51:39;5.88;;;0.85;;
52368;SDS011;38298;50.346;3.526;2023-12-22T10:54:05;5.50;;;1.02;;
52368;SDS011;38298;50.346;3.526;2023-12-22T10:56:31;4.97;;;0.70;;
52368;SDS011;38298;50.346;3.526;2023-12-22T10:58:57;6.25;;;0.70;;
52368;SDS011;38298;50.346;3.526;2023-12-22T11:01:23;2.03;;;0.60;;
52368;SDS011;38298;50.346;3.526;2023-12-22T11:03:51;3.78;;;1.13;;
52368;SDS011;38298;50.346;3.526;2023-12-22T11:06:18;4.90;;;0.90;;
52368;SDS011;38298;50.346;3.526;2023-12-22T11:08:45;8.88;;;1.20;;
52368;SDS011;38298;50.346;3.526;2023-12-22T11:11:16;5.40;;;0.70;;
52368;SDS011;38298;50.346;3.526;2023-12-22T11:13:45;5.47;;;0.90;;
52368;SDS011;38298;50.346;3.526;2023-12-22T11:16:11;9.00;;;0.80;;
52368;SDS011;38298;50.346;3.526;2023-12-22T11:18:38;7.55;;;0.77;;
52368;SDS011;38298;50.346;3.526;2023-12-22T11:21:05;3.75;;;0.73;;
52368;SDS011;38298;50.346;3.526;2023-12-22T11:23:32;6.85;;;0.77;;
52368;SDS011;38298;50.346;3.526;2023-12-22T11:25:58;3.90;;;0.85;;
52368;SDS011;38298;50.346;3.526;2023-12-22T11:28:24;5.90;;;0.80;;
52368;SDS011;38298;50.346;3.526;2023-12-22T11:30:51;3.92;;;1.17;;
52368;SDS011;38298;50.346;3.526;2023-12-22T11:33:17;2.75;;;0.60;;
52368;SDS011;38298;50.346;3.526;2023-12-22T11:35:44;5.32;;;0.57;;
52368;SDS011;38298;50.346;3.526;2023-12-22T11:38:10;4.40;;;0.70;;
52368;SDS011;38298;50.346;3.526;2023-12-22T11:40:36;4.78;;;1.05;;
52368;SDS011;38298;50.346;3.526;2023-12-22T11:43:03;2.45;;;0.60;;
52368;SDS011;38298;50.346;3.526;2023-12-22T11:45:32;4.40;;;0.88;;
52368;SDS011;38298;50.346;3.526;2023-12-22T11:48:06;1.95;;;0.68;;
52368;SDS011;38298;50.346;3.526;2023-12-22T11:50:32;2.97;;;0.60;;
52368;SDS011;38298;50.346;3.526;2023-12-22T11:53:17;4.00;;;0.82;;
52368;SDS011;38298;50.346;3.526;2023-12-22T12:01:05;4.22;;;0.60;;
52368;SDS011;38298;50.346;3.526;2023-12-22T12:03:31;5.85;;;0.90;;
52368;SDS011;38298;50.346;3.526;2023-12-22T12:08:39;6.93;;;0.95;;
52368;SDS011;38298;50.346;3.526;2023-12-22T12:11:06;1.55;;;0.43;;
52368;SDS011;38298;50.346;3.526;2023-12-22T12:13:33;5.35;;;0.60;;
52368;SDS011;38298;50.346;3.526;2023-12-22T12:15:59;5.40;;;0.90;;
52368;SDS011;38298;50.346;3.526;2023-12-22T12:18:29;3.72;;;0.63;;
52368;SDS011;38298;50.346;3.526;2023-12-22T12:20:56;2.90;;;0.77;;
52368;SDS011;38298;50.346;3.526;2023-12-22T12:23:25;5.93;;;1.05;;
52368;SDS011;38298;50.346;3.526;2023-12-22T12:25:52;5.03;;;0.97;;
52368;SDS011;38298;50.346;3.526;2023-12-22T12:28:18;6.63;;;1.10;;
52368;SDS011;38298;50.346;3.526;2023-12-22T12:30:52;4.38;;;1.02;;
52368;SDS011;38298;50.346;3.526;2023-12-22T12:33:23;6.57;;;1.08;;
52368;SDS011;38298;50.346;3.526;2023-12-22T12:35:50;5.95;;;0.80;;
52368;SDS011;38298;50.346;3.526;2023-12-22T12:38:19;8.75;;;0.93;;
52368;SDS011;38298;50.346;3.526;2023-12-22T12:40:46;4.72;;;0.80;;
52368;SDS011;38298;50.346;3.526;2023-12-22T12:43:15;5.18;;;0.88;;
52368;SDS011;38298;50.346;3.526;2023-12-22T12:45:41;6.00;;;0.98;;
52368;SDS011;38298;50.346;3.526;2023-12-22T12:48:07;5.65;;;0.82;;
52368;SDS011;38298;50.346;3.526;2023-12-22T12:50:33;3.88;;;0.60;;
52368;SDS011;38298;50.346;3.526;2023-12-22T12:53:00;6.45;;;0.80;;
52368;SDS011;38298;50.346;3.526;2023-12-22T12:55:26;4.03;;;0.65;;
52368;SDS011;38298;50.346;3.526;2023-12-22T12:57:53;4.15;;;1.02;;
52368;SDS011;38298;50.346;3.526;2023-12-22T13:00:25;7.85;;;0.75;;
52368;SDS011;38298;50.346;3.526;2023-12-22T13:02:55;6.35;;;1.08;;
52368;SDS011;38298;50.346;3.526;2023-12-22T13:05:24;4.10;;;0.80;;
52368;SDS011;38298;50.346;3.526;2023-12-22T13:07:51;4.65;;;0.90;;
52368;SDS011;38298;50.346;3.526;2023-12-22T13:10:20;3.17;;;0.63;;
52368;SDS011;38298;50.346;3.526;2023-12-22T13:12:47;3.53;;;0.70;;
52368;SDS011;38298;50.346;3.526;2023-12-22T13:15:13;3.65;;;0.70;;
52368;SDS011;38298;50.346;3.526;2023-12-22T13:17:39;9.75;;;1.50;;
52368;SDS011;38298;50.346;3.526;2023-12-22T13:20:05;10.57;;;0.77;;
52368;SDS011;38298;50.346;3.526;2023-12-22T13:22:32;4.82;;;0.95;;
52368;SDS011;38298;50.346;3.526;2023-12-22T13:24:58;9.73;;;1.15;;
52368;SDS011;38298;50.346;3.526;2023-12-22T13:27:24;7.35;;;1.27;;
52368;SDS011;38298;50.346;3.526;2023-12-22T13:29:50;4.68;;;0.82;;
52368;SDS011;38298;50.346;3.526;2023-12-22T13:32:17;4.22;;;0.80;;
52368;SDS011;38298;50.346;3.526;2023-12-22T13:34:50;5.88;;;1.10;;
52368;SDS011;38298;50.346;3.526;2023-12-22T13:37:17;5.35;;;1.08;;
52368;SDS011;38298;50.346;3.526;2023-12-22T13:39:43;6.75;;;0.95;;
52368;SDS011;38298;50.346;3.526;2023-12-22T13:42:15;12.60;;;1.40;;
52368;SDS011;38298;50.346;3.526;2023-12-22T13:44:45;3.78;;;1.00;;
52368;SDS011;38298;50.346;3.526;2023-12-22T13:47:14;2.08;;;0.90;;
52368;SDS011;38298;50.346;3.526;2023-12-22T13:49:41;5.40;;;0.85;;
52368;SDS011;38298;50.346;3.526;2023-12-22T13:52:08;9.73;;;0.70;;
52368;SDS011;38298;50.346;3.526;2023-12-22T13:54:34;5.30;;;0.80;;
52368;SDS011;38298;50.346;3.526;2023-12-22T13:57:00;7.15;;;0.93;;
52368;SDS011;38298;50.346;3.526;2023-12-22T13:59:33;9.02;;;1.10;;
52368;SDS011;38298;50.346;3.526;2023-12-22T14:01:59;7.43;;;1.13;;
52368;SDS011;38298;50.346;3.526;2023-12-22T14:04:26;3.30;;;0.90;;
52368;SDS011;38298;50.346;3.526;2023-12-22T14:06:52;6.72;;;1.00;;
52368;SDS011;38298;50.346;3.526;2023-12-22T14:09:18;4.28;;;1.05;;
52368;SDS011;38298;50.346;3.526;2023-12-22T14:14:15;11.20;;;1.10;;
52368;SDS011;38298;50.346;3.526;2023-12-22T14:16:42;7.10;;;1.02;;
52368;SDS011;38298;50.346;3.526;2023-12-22T14:19:08;11.93;;;1.20;;
52368;SDS011;38298;50.346;3.526;2023-12-22T14:21:33;3.22;;;0.75;;
52368;SDS011;38298;50.346;3.526;2023-12-22T14:23:59;10.57;;;1.25;;
52368;SDS011;38298;50.346;3.526;2023-12-22T14:26:25;7.93;;;1.17;;
52368;SDS011;38298;50.346;3.526;2023-12-22T14:28:51;7.95;;;1.52;;
52368;SDS011;38298;50.346;3.526;2023-12-22T14:31:17;7.03;;;1.13;;
52368;SDS011;38298;50.346;3.526;2023-12-22T14:33:43;5.30;;;1.00;;
52368;SDS011;38298;50.346;3.526;2023-12-22T14:36:09;10.18;;;1.10;;
52368;SDS011;38298;50.346;3.526;2023-12-22T14:38:35;9.98;;;1.20;;
52368;SDS011;38298;50.346;3.526;2023-12-22T14:41:01;5.45;;;1.10;;
52368;SDS011;38298;50.346;3.526;2023-12-22T14:43:27;7.10;;;1.25;;
52368;SDS011;38298;50.346;3.526;2023-12-22T14:45:53;9.63;;;1.73;;
52368;SDS011;38298;50.346;3.526;2023-12-22T14:48:20;6.53;;;1.27;;
52368;SDS011;38298;50.346;3.526;2023-12-22T14:50:45;7.80;;;1.05;;
52368;SDS011;38298;50.346;3.526;2023-12-22T14:53:11;5.18;;;1.20;;